createdAt,value
2019-01-13T00:00:11.784Z,996.56
2019-01-13T00:01:08.513Z,996.57
2019-01-13T00:02:08.514Z,996.65
2019-01-13T00:03:08.448Z,996.67
2019-01-13T00:04:08.468Z,996.60
2019-01-13T00:05:08.433Z,996.59
2019-01-13T00:06:08.455Z,996.61
2019-01-13T00:07:08.398Z,996.57
2019-01-13T00:08:08.389Z,996.50
2019-01-13T00:09:08.375Z,996.64
2019-01-13T00:10:08.404Z,996.57
2019-01-13T00:11:08.388Z,996.55
2019-01-13T00:12:08.346Z,996.60
2019-01-13T00:13:08.320Z,996.54
2019-01-13T00:14:08.335Z,996.57
2019-01-13T00:15:08.325Z,996.59
2019-01-13T00:16:08.324Z,996.54
2019-01-13T00:17:08.286Z,996.50
2019-01-13T00:18:08.319Z,996.54
2019-01-13T00:19:08.278Z,996.48
2019-01-13T00:20:08.281Z,996.54
2019-01-13T00:21:08.272Z,996.55
2019-01-13T00:22:08.262Z,996.57
2019-01-13T00:23:08.227Z,996.66
2019-01-13T00:24:08.216Z,996.50
2019-01-13T00:25:08.242Z,996.54
2019-01-13T00:26:08.211Z,996.58
2019-01-13T00:27:08.201Z,996.55
2019-01-13T00:28:08.189Z,996.51
2019-01-13T00:29:08.169Z,996.57
2019-01-13T00:30:08.781Z,996.61
2019-01-13T00:31:08.175Z,996.53
2019-01-13T00:32:08.177Z,996.58
2019-01-13T00:33:08.153Z,996.56
2019-01-13T00:34:09.810Z,996.61
2019-01-13T00:35:08.101Z,996.60
2019-01-13T00:36:08.106Z,996.65
2019-01-13T00:37:08.778Z,996.55
2019-01-13T00:38:08.077Z,996.61
2019-01-13T00:39:08.073Z,996.61
2019-01-13T00:40:08.068Z,996.60
2019-01-13T00:41:08.059Z,996.65
2019-01-13T00:42:08.077Z,996.64
2019-01-13T00:43:08.036Z,996.63
2019-01-13T00:44:08.008Z,996.70
2019-01-13T00:45:08.023Z,996.72
2019-01-13T00:46:08.025Z,996.66
2019-01-13T00:47:08.030Z,996.64
2019-01-13T00:48:08.774Z,996.62
2019-01-13T00:49:07.976Z,996.70
2019-01-13T00:50:07.963Z,996.69
2019-01-13T00:51:07.951Z,996.75
2019-01-13T00:52:07.948Z,996.68
2019-01-13T00:53:07.904Z,996.72
2019-01-13T00:54:07.885Z,996.78
2019-01-13T00:55:07.954Z,996.66
2019-01-13T00:56:07.908Z,996.69
2019-01-13T00:57:07.850Z,996.79
2019-01-13T00:58:07.864Z,996.71
2019-01-13T00:59:07.852Z,996.68
2019-01-13T01:00:07.826Z,996.62
2019-01-13T01:01:08.315Z,996.71
2019-01-13T01:02:07.863Z,996.73
2019-01-13T01:03:07.811Z,996.62
2019-01-13T01:04:07.807Z,996.71
2019-01-13T01:05:14.848Z,996.60
2019-01-13T01:06:15.957Z,996.53
2019-01-13T01:07:14.830Z,996.56
2019-01-13T01:08:07.768Z,996.63
2019-01-13T01:09:07.740Z,996.54
2019-01-13T01:10:07.727Z,996.53
2019-01-13T01:11:07.727Z,996.57
2019-01-13T01:12:07.737Z,996.57
2019-01-13T01:13:07.686Z,996.56
2019-01-13T01:14:07.690Z,996.62
2019-01-13T01:15:07.666Z,996.66
2019-01-13T01:16:07.692Z,996.64
2019-01-13T01:17:08.348Z,996.65
2019-01-13T01:18:07.663Z,996.62
2019-01-13T01:19:07.632Z,996.69
2019-01-13T01:20:07.629Z,996.61
2019-01-13T01:21:07.624Z,996.62
2019-01-13T01:22:07.610Z,996.61
2019-01-13T01:23:07.602Z,996.66
2019-01-13T01:24:07.603Z,996.69
2019-01-13T01:25:07.573Z,996.66
2019-01-13T01:26:07.583Z,996.62
2019-01-13T01:27:07.564Z,996.66
2019-01-13T01:28:07.552Z,996.68
2019-01-13T01:29:07.537Z,996.72
2019-01-13T01:30:07.534Z,996.71
2019-01-13T01:31:07.541Z,996.68
2019-01-13T01:32:07.515Z,996.81
2019-01-13T01:33:07.496Z,996.83
2019-01-13T01:34:07.512Z,996.75
2019-01-13T01:35:07.474Z,996.78
2019-01-13T01:36:07.492Z,996.75
2019-01-13T01:37:07.426Z,996.76
2019-01-13T01:38:07.437Z,996.81
2019-01-13T01:39:07.430Z,996.77
2019-01-13T01:40:14.518Z,996.86
2019-01-13T01:41:07.493Z,996.79
2019-01-13T01:42:07.402Z,996.80
2019-01-13T01:43:14.489Z,996.82
2019-01-13T01:44:15.468Z,996.81
2019-01-13T01:45:15.947Z,996.85
2019-01-13T01:46:14.450Z,996.85
2019-01-13T01:47:15.025Z,996.90
2019-01-13T01:48:07.326Z,996.95
2019-01-13T01:49:14.932Z,996.95
2019-01-13T01:50:16.087Z,996.95
2019-01-13T01:51:15.404Z,996.87
2019-01-13T01:52:07.293Z,996.90
2019-01-13T01:53:07.313Z,996.90
2019-01-13T01:54:07.274Z,996.90
2019-01-13T01:55:07.245Z,996.90
2019-01-13T01:56:07.282Z,996.88
2019-01-13T01:57:07.232Z,996.90
2019-01-13T01:58:07.234Z,996.89
2019-01-13T01:59:07.225Z,996.89
2019-01-13T02:00:07.217Z,996.93
2019-01-13T02:01:07.192Z,996.85
2019-01-13T02:02:07.202Z,996.91
2019-01-13T02:03:07.184Z,996.78
2019-01-13T02:04:07.188Z,996.95
2019-01-13T02:05:07.187Z,996.80
2019-01-13T02:06:07.155Z,996.83
2019-01-13T02:07:07.151Z,996.84
2019-01-13T02:08:07.169Z,996.75
2019-01-13T02:09:07.126Z,996.86
2019-01-13T02:10:07.176Z,996.88
2019-01-13T02:11:07.094Z,996.94
2019-01-13T02:12:07.105Z,996.98
2019-01-13T02:13:07.086Z,996.91
2019-01-13T02:14:07.060Z,996.88
2019-01-13T02:15:07.067Z,996.88
2019-01-13T02:16:07.078Z,996.91
2019-01-13T02:17:07.119Z,996.88
2019-01-13T02:18:07.030Z,996.86
2019-01-13T02:19:07.028Z,996.90
2019-01-13T02:20:07.004Z,996.91
2019-01-13T02:21:06.980Z,996.91
2019-01-13T02:22:07.018Z,996.95
2019-01-13T02:23:06.979Z,996.92
2019-01-13T02:24:06.972Z,996.97
2019-01-13T02:25:06.933Z,996.96
2019-01-13T02:26:06.923Z,997.02
2019-01-13T02:27:06.930Z,996.96
2019-01-13T02:28:06.904Z,997.01
2019-01-13T02:29:06.921Z,996.96
2019-01-13T02:30:06.880Z,997.01
2019-01-13T02:31:06.877Z,997.01
2019-01-13T02:32:06.882Z,997.03
2019-01-13T02:33:06.837Z,996.98
2019-01-13T02:34:06.832Z,996.98
2019-01-13T02:35:06.824Z,996.94
2019-01-13T02:36:06.816Z,996.96
2019-01-13T02:37:06.833Z,996.97
2019-01-13T02:38:06.787Z,996.98
2019-01-13T02:39:06.783Z,997.04
2019-01-13T02:40:06.772Z,996.99
2019-01-13T02:41:06.777Z,996.98
2019-01-13T02:42:06.779Z,997.03
2019-01-13T02:43:06.763Z,996.97
2019-01-13T02:44:06.725Z,996.89
2019-01-13T02:45:06.709Z,996.86
2019-01-13T02:46:06.720Z,996.86
2019-01-13T02:47:06.728Z,996.84
2019-01-13T02:48:06.694Z,996.84
2019-01-13T02:49:06.682Z,996.88
2019-01-13T02:50:06.659Z,996.90
2019-01-13T02:51:06.652Z,996.88
2019-01-13T02:52:06.681Z,996.84
2019-01-13T02:53:06.636Z,996.91
2019-01-13T02:54:06.647Z,996.77
2019-01-13T02:55:06.634Z,996.84
2019-01-13T02:56:06.612Z,996.79
2019-01-13T02:57:06.608Z,996.70
2019-01-13T02:58:06.590Z,996.71
2019-01-13T02:59:06.593Z,996.76
2019-01-13T03:00:06.575Z,996.74
2019-01-13T03:01:06.566Z,996.75
2019-01-13T03:02:06.579Z,996.71
2019-01-13T03:03:06.539Z,996.72
2019-01-13T03:04:06.561Z,996.73
2019-01-13T03:05:06.542Z,996.68
2019-01-13T03:06:06.521Z,996.74
2019-01-13T03:07:06.531Z,996.71
2019-01-13T03:08:06.545Z,996.67
2019-01-13T03:09:06.462Z,996.68
2019-01-13T03:10:06.467Z,996.75
2019-01-13T03:11:06.461Z,996.72
2019-01-13T03:12:13.564Z,996.70
2019-01-13T03:13:13.479Z,996.79
2019-01-13T03:14:13.965Z,996.74
2019-01-13T03:15:19.518Z,996.78
2019-01-13T03:17:17.043Z,996.76
2019-01-13T03:18:24.904Z,996.76
2019-01-13T03:19:24.921Z,996.85
2019-01-13T03:20:24.927Z,996.84
2019-01-13T03:21:24.048Z,996.76
2019-01-13T03:22:25.087Z,996.74
2019-01-13T03:23:24.989Z,996.71
2019-01-13T03:26:38.242Z,996.68
2019-01-13T03:27:46.293Z,996.69
2019-01-13T03:28:45.241Z,996.64
2019-01-13T03:29:38.167Z,996.67
2019-01-13T03:30:38.203Z,996.71
2019-01-13T03:31:38.135Z,996.72
2019-01-13T03:32:38.146Z,996.70
2019-01-13T03:33:38.123Z,996.67
2019-01-13T03:34:38.113Z,996.72
2019-01-13T03:35:38.124Z,996.66
2019-01-13T03:36:38.096Z,996.70
2019-01-13T03:37:38.121Z,996.72
2019-01-13T03:38:38.074Z,996.73
2019-01-13T03:39:38.094Z,996.73
2019-01-13T03:40:38.100Z,996.75
2019-01-13T03:41:38.064Z,996.66
2019-01-13T03:42:38.056Z,996.73
2019-01-13T03:43:38.025Z,996.65
2019-01-13T03:44:38.038Z,996.77
2019-01-13T03:45:38.012Z,996.75
2019-01-13T03:46:38.007Z,996.68
2019-01-13T03:47:38.025Z,996.66
2019-01-13T03:48:37.987Z,996.66
2019-01-13T03:49:37.974Z,996.71
2019-01-13T03:50:37.953Z,996.67
2019-01-13T03:51:37.936Z,996.58
2019-01-13T03:52:38.598Z,996.59
2019-01-13T03:53:37.905Z,996.54
2019-01-13T03:54:37.906Z,996.56
2019-01-13T03:55:37.914Z,996.58
2019-01-13T03:56:37.885Z,996.59
2019-01-13T03:57:37.933Z,996.54
2019-01-13T03:58:37.870Z,996.58
2019-01-13T03:59:37.879Z,996.62
2019-01-13T04:00:37.848Z,996.52
2019-01-13T04:01:37.856Z,996.60
2019-01-13T04:02:37.838Z,996.56
2019-01-13T04:03:37.826Z,996.58
2019-01-13T04:04:44.888Z,996.58
2019-01-13T04:05:44.999Z,996.61
2019-01-13T04:06:44.868Z,996.58
2019-01-13T04:07:37.770Z,996.52
2019-01-13T04:08:37.762Z,996.55
2019-01-13T04:09:37.743Z,996.62
2019-01-13T04:10:37.735Z,996.54
2019-01-13T04:11:37.719Z,996.50
2019-01-13T04:12:37.719Z,996.51
2019-01-13T04:13:37.699Z,996.48
2019-01-13T04:14:37.704Z,996.52
2019-01-13T04:15:37.696Z,996.49
2019-01-13T04:16:37.667Z,996.43
2019-01-13T04:17:37.691Z,996.43
2019-01-13T04:18:37.652Z,996.46
2019-01-13T04:19:37.643Z,996.43
2019-01-13T04:20:37.623Z,996.35
2019-01-13T04:21:37.620Z,996.29
2019-01-13T04:22:37.633Z,996.41
2019-01-13T04:23:37.586Z,996.36
2019-01-13T04:24:37.582Z,996.37
2019-01-13T04:25:37.577Z,996.34
2019-01-13T04:26:37.565Z,996.28
2019-01-13T04:27:37.576Z,996.29
2019-01-13T04:28:37.547Z,996.32
2019-01-13T04:29:37.551Z,996.35
2019-01-13T04:30:37.536Z,996.34
2019-01-13T04:31:37.505Z,996.37
2019-01-13T04:32:37.532Z,996.30
2019-01-13T04:33:37.509Z,996.26
2019-01-13T04:34:37.508Z,996.26
2019-01-13T04:35:37.468Z,996.25
2019-01-13T04:36:37.459Z,996.21
2019-01-13T04:37:37.452Z,996.15
2019-01-13T04:38:37.453Z,996.13
2019-01-13T04:39:37.439Z,996.17
2019-01-13T04:40:37.426Z,996.16
2019-01-13T04:41:37.442Z,996.17
2019-01-13T04:42:37.423Z,996.15
2019-01-13T04:43:37.393Z,996.10
2019-01-13T04:44:37.384Z,996.10
2019-01-13T04:45:37.375Z,996.13
2019-01-13T04:46:38.621Z,996.13
2019-01-13T04:47:37.366Z,996.11
2019-01-13T04:48:37.341Z,996.16
2019-01-13T04:49:37.373Z,996.12
2019-01-13T04:50:37.355Z,996.17
2019-01-13T04:51:37.337Z,996.18
2019-01-13T04:52:37.344Z,996.18
2019-01-13T04:53:37.297Z,996.10
2019-01-13T04:54:37.273Z,996.14
2019-01-13T04:55:37.272Z,996.17
2019-01-13T04:56:37.246Z,996.13
2019-01-13T04:57:37.275Z,996.11
2019-01-13T04:58:37.240Z,996.15
2019-01-13T04:59:37.229Z,996.14
2019-01-13T05:00:37.220Z,996.07
2019-01-13T05:01:37.204Z,996.16
2019-01-13T05:02:37.215Z,996.13
2019-01-13T05:03:37.194Z,996.14
2019-01-13T05:04:37.165Z,996.11
2019-01-13T05:05:37.182Z,996.10
2019-01-13T05:06:37.160Z,996.01
2019-01-13T05:07:37.173Z,996.05
2019-01-13T05:08:44.237Z,996.14
2019-01-13T05:09:45.195Z,996.11
2019-01-13T05:10:37.166Z,996.11
2019-01-13T05:11:37.105Z,996.12
2019-01-13T05:12:37.095Z,996.08
2019-01-13T05:13:37.108Z,996.08
2019-01-13T05:14:37.065Z,996.09
2019-01-13T05:15:37.078Z,996.06
2019-01-13T05:16:37.043Z,996.10
2019-01-13T05:17:37.049Z,996.11
2019-01-13T05:18:37.081Z,996.10
2019-01-13T05:19:37.065Z,996.13
2019-01-13T05:20:37.018Z,996.11
2019-01-13T05:21:36.987Z,996.06
2019-01-13T05:22:36.988Z,996.01
2019-01-13T05:23:36.996Z,996.15
2019-01-13T05:24:36.968Z,996.09
2019-01-13T05:25:36.947Z,996.10
2019-01-13T05:26:36.933Z,996.15
2019-01-13T05:27:36.949Z,996.08
2019-01-13T05:28:36.956Z,996.14
2019-01-13T05:29:36.914Z,996.11
2019-01-13T05:30:36.925Z,996.08
2019-01-13T05:31:41.899Z,996.08
2019-01-13T05:32:37.879Z,995.97
2019-01-13T05:33:36.888Z,996.03
2019-01-13T05:34:36.867Z,996.03
2019-01-13T05:35:36.843Z,995.97
2019-01-13T05:36:36.829Z,996.02
2019-01-13T05:37:36.853Z,996.05
2019-01-13T05:38:36.839Z,996.00
2019-01-13T05:39:36.793Z,995.93
2019-01-13T05:40:36.807Z,996.00
2019-01-13T05:41:36.791Z,995.97
2019-01-13T05:42:36.809Z,995.95
2019-01-13T05:43:36.784Z,995.92
2019-01-13T05:44:36.807Z,995.90
2019-01-13T05:45:36.781Z,995.92
2019-01-13T05:46:36.724Z,995.91
2019-01-13T05:47:36.723Z,995.89
2019-01-13T05:48:36.748Z,995.87
2019-01-13T05:49:36.705Z,995.81
2019-01-13T05:50:36.702Z,995.84
2019-01-13T05:51:36.692Z,995.80
2019-01-13T05:52:36.679Z,995.80
2019-01-13T05:53:36.678Z,995.77
2019-01-13T05:54:36.644Z,995.80
2019-01-13T05:55:36.641Z,995.78
2019-01-13T05:56:36.692Z,995.72
2019-01-13T05:57:36.617Z,995.76
2019-01-13T05:58:36.617Z,995.66
2019-01-13T05:59:36.599Z,995.64
2019-01-13T06:00:36.594Z,995.65
2019-01-13T06:01:36.591Z,995.61
2019-01-13T06:02:36.564Z,995.59
2019-01-13T06:03:36.589Z,995.57
2019-01-13T06:04:36.536Z,995.52
2019-01-13T06:05:36.526Z,995.50
2019-01-13T06:06:36.526Z,995.52
2019-01-13T06:07:36.526Z,995.57
2019-01-13T06:08:36.513Z,995.51
2019-01-13T06:09:36.472Z,995.50
2019-01-13T06:10:36.487Z,995.54
2019-01-13T06:11:36.453Z,995.52
2019-01-13T06:12:36.442Z,995.54
2019-01-13T06:13:36.466Z,995.51
2019-01-13T06:14:36.415Z,995.51
2019-01-13T06:15:36.406Z,995.52
2019-01-13T06:16:36.410Z,995.46
2019-01-13T06:17:36.398Z,995.50
2019-01-13T06:18:36.415Z,995.51
2019-01-13T06:19:36.391Z,995.50
2019-01-13T06:20:36.393Z,995.50
2019-01-13T06:21:36.350Z,995.40
2019-01-13T06:22:36.342Z,995.44
2019-01-13T06:23:36.340Z,995.34
2019-01-13T06:24:36.360Z,995.37
2019-01-13T06:25:36.324Z,995.34
2019-01-13T06:26:36.318Z,995.38
2019-01-13T06:27:36.288Z,995.41
2019-01-13T06:28:36.294Z,995.36
2019-01-13T06:29:36.280Z,995.39
2019-01-13T06:30:36.269Z,995.38
2019-01-13T06:31:36.264Z,995.41
2019-01-13T06:32:36.241Z,995.44
2019-01-13T06:33:36.235Z,995.39
2019-01-13T06:34:36.214Z,995.39
2019-01-13T06:35:36.211Z,995.40
2019-01-13T06:36:36.208Z,995.39
2019-01-13T06:37:36.213Z,995.40
2019-01-13T06:38:36.220Z,995.43
2019-01-13T06:39:36.173Z,995.43
2019-01-13T06:40:36.152Z,995.37
2019-01-13T06:41:36.165Z,995.38
2019-01-13T06:42:36.151Z,995.42
2019-01-13T06:43:36.157Z,995.39
2019-01-13T06:44:36.114Z,995.37
2019-01-13T06:45:36.108Z,995.42
2019-01-13T06:46:36.093Z,995.45
2019-01-13T06:47:36.089Z,995.45
2019-01-13T06:48:36.085Z,995.45
2019-01-13T06:49:36.091Z,995.44
2019-01-13T06:50:36.063Z,995.42
2019-01-13T06:51:36.043Z,995.43
2019-01-13T06:52:36.038Z,995.42
2019-01-13T06:53:36.037Z,995.53
2019-01-13T06:54:36.034Z,995.51
2019-01-13T06:55:35.996Z,995.50
2019-01-13T06:56:35.997Z,995.53
2019-01-13T06:57:35.995Z,995.55
2019-01-13T06:58:35.992Z,995.58
2019-01-13T06:59:35.987Z,995.52
2019-01-13T07:00:35.964Z,995.56
2019-01-13T07:01:35.981Z,995.57
2019-01-13T07:02:35.989Z,995.51
2019-01-13T07:03:43.993Z,995.46
2019-01-13T07:04:43.035Z,995.45
2019-01-13T07:05:42.950Z,995.45
2019-01-13T07:06:43.818Z,995.37
2019-01-13T07:07:42.955Z,995.35
2019-01-13T07:08:42.968Z,995.29
2019-01-13T07:09:35.858Z,995.18
2019-01-13T07:10:42.912Z,995.26
2019-01-13T07:11:43.456Z,995.28
2019-01-13T07:12:43.411Z,995.26
2019-01-13T07:13:42.896Z,995.26
2019-01-13T07:14:44.473Z,995.29
2019-01-13T07:15:43.480Z,995.37
2019-01-13T07:16:43.840Z,995.28
2019-01-13T07:17:42.841Z,995.29
2019-01-13T07:18:35.765Z,995.30
2019-01-13T07:19:35.768Z,995.28
2019-01-13T07:20:35.734Z,995.24
2019-01-13T07:21:35.723Z,995.13
2019-01-13T07:22:35.714Z,995.19
2019-01-13T07:23:35.709Z,995.16
2019-01-13T07:24:35.711Z,995.20
2019-01-13T07:25:35.677Z,995.17
2019-01-13T07:26:35.668Z,995.02
2019-01-13T07:27:35.670Z,995.01
2019-01-13T07:28:35.672Z,994.98
2019-01-13T07:29:35.669Z,995.03
2019-01-13T07:30:35.655Z,994.95
2019-01-13T07:31:35.643Z,994.94
2019-01-13T07:32:35.609Z,994.98
2019-01-13T07:33:35.606Z,994.96
2019-01-13T07:34:35.613Z,994.96
2019-01-13T07:35:35.584Z,994.98
2019-01-13T07:36:35.590Z,994.96
2019-01-13T07:37:35.580Z,994.93
2019-01-13T07:38:35.598Z,994.98
2019-01-13T07:39:35.563Z,994.92
2019-01-13T07:40:36.065Z,994.95
2019-01-13T07:41:35.627Z,994.91
2019-01-13T07:42:35.554Z,994.82
2019-01-13T07:43:35.499Z,994.81
2019-01-13T07:44:35.514Z,994.77
2019-01-13T07:45:35.492Z,994.76
2019-01-13T07:46:35.480Z,994.72
2019-01-13T07:47:35.468Z,994.74
2019-01-13T07:48:35.457Z,994.79
2019-01-13T07:49:35.461Z,994.70
2019-01-13T07:50:35.429Z,994.78
2019-01-13T07:51:35.466Z,994.71
2019-01-13T07:52:35.408Z,994.71
2019-01-13T07:53:35.437Z,994.72
2019-01-13T07:54:35.424Z,994.67
2019-01-13T07:55:35.387Z,994.70
2019-01-13T07:56:35.394Z,994.78
2019-01-13T07:57:35.387Z,994.69
2019-01-13T07:58:35.352Z,994.65
2019-01-13T07:59:35.371Z,994.67
2019-01-13T08:00:35.343Z,994.63
2019-01-13T08:01:35.337Z,994.66
2019-01-13T08:02:35.309Z,994.59
2019-01-13T08:03:35.292Z,994.57
2019-01-13T08:04:35.314Z,994.60
2019-01-13T08:05:35.369Z,994.60
2019-01-13T08:06:35.293Z,994.62
2019-01-13T08:07:35.250Z,994.59
2019-01-13T08:08:35.233Z,994.61
2019-01-13T08:09:35.254Z,994.61
2019-01-13T08:10:35.238Z,994.56
2019-01-13T08:11:35.222Z,994.56
2019-01-13T08:12:35.223Z,994.60
2019-01-13T08:13:35.194Z,994.54
2019-01-13T08:14:35.199Z,994.55
2019-01-13T08:15:35.176Z,994.53
2019-01-13T08:16:36.064Z,994.52
2019-01-13T08:17:35.153Z,994.50
2019-01-13T08:18:35.151Z,994.48
2019-01-13T08:19:35.156Z,994.58
2019-01-13T08:20:35.107Z,994.50
2019-01-13T08:21:35.098Z,994.46
2019-01-13T08:22:35.101Z,994.37
2019-01-13T08:23:35.160Z,994.33
2019-01-13T08:24:35.108Z,994.34
2019-01-13T08:25:42.420Z,994.33
2019-01-13T08:26:43.841Z,994.37
2019-01-13T08:30:31.961Z,994.30
2019-01-13T08:31:32.318Z,994.29
2019-01-13T08:34:09.477Z,994.23
2019-01-13T08:35:09.664Z,994.21
2019-01-13T08:36:09.085Z,994.21
2019-01-13T08:37:09.075Z,994.17
2019-01-13T08:38:09.024Z,994.18
2019-01-13T08:39:09.012Z,994.22
2019-01-13T08:40:09.015Z,994.13
2019-01-13T08:41:09.002Z,994.13
2019-01-13T08:42:09.002Z,994.17
2019-01-13T08:43:08.996Z,994.04
2019-01-13T08:44:08.969Z,994.09
2019-01-13T08:45:08.983Z,994.09
2019-01-13T08:46:08.980Z,994.07
2019-01-13T08:47:08.938Z,994.09
2019-01-13T08:48:08.977Z,994.08
2019-01-13T08:49:08.937Z,994.10
2019-01-13T08:50:16.129Z,994.02
2019-01-13T08:51:15.976Z,994.01
2019-01-13T08:52:08.978Z,993.96
2019-01-13T08:53:08.995Z,993.90
2019-01-13T08:54:08.864Z,993.90
2019-01-13T08:55:09.028Z,993.95
2019-01-13T08:56:08.842Z,993.87
2019-01-13T08:57:08.836Z,993.89
2019-01-13T08:58:08.837Z,993.77
2019-01-13T08:59:09.419Z,993.78
2019-01-13T09:00:08.833Z,993.70
2019-01-13T09:01:09.785Z,993.67
2019-01-13T09:02:08.795Z,993.64
2019-01-13T09:03:08.774Z,993.65
2019-01-13T09:04:08.773Z,993.59
2019-01-13T09:05:08.796Z,993.62
2019-01-13T09:06:08.750Z,993.55
2019-01-13T09:07:08.764Z,993.49
2019-01-13T09:08:08.777Z,993.51
2019-01-13T09:09:08.707Z,993.48
2019-01-13T09:10:08.713Z,993.48
2019-01-13T09:11:08.738Z,993.50
2019-01-13T09:12:08.691Z,993.51
2019-01-13T09:13:09.463Z,993.49
2019-01-13T09:14:08.645Z,993.48
2019-01-13T09:15:08.934Z,993.46
2019-01-13T09:16:08.717Z,993.47
2019-01-13T09:17:08.633Z,993.44
2019-01-13T09:18:08.614Z,993.38
2019-01-13T09:19:08.630Z,993.40
2019-01-13T09:20:08.625Z,993.35
2019-01-13T09:21:08.604Z,993.37
2019-01-13T09:22:08.589Z,993.32
2019-01-13T09:23:08.595Z,993.32
2019-01-13T09:24:08.564Z,993.27
2019-01-13T09:25:09.446Z,993.21
2019-01-13T09:26:08.522Z,993.25
2019-01-13T09:27:08.543Z,993.26
2019-01-13T09:28:08.532Z,993.16
2019-01-13T09:29:08.527Z,993.20
2019-01-13T09:30:08.519Z,993.15
2019-01-13T09:31:08.481Z,993.07
2019-01-13T09:32:08.467Z,993.16
2019-01-13T09:33:08.480Z,993.10
2019-01-13T09:34:08.449Z,993.03
2019-01-13T09:35:08.488Z,993.01
2019-01-13T09:36:08.416Z,993.06
2019-01-13T09:37:08.436Z,993.00
2019-01-13T09:38:08.575Z,992.90
2019-01-13T09:39:08.951Z,992.89
2019-01-13T09:40:08.425Z,992.82
2019-01-13T09:41:08.393Z,992.81
2019-01-13T09:42:08.387Z,992.80
2019-01-13T09:43:08.378Z,992.79
2019-01-13T09:44:08.336Z,992.77
2019-01-13T09:45:08.346Z,992.70
2019-01-13T09:46:08.341Z,992.66
2019-01-13T09:47:08.316Z,992.65
2019-01-13T09:48:08.315Z,992.67
2019-01-13T09:49:08.285Z,992.67
2019-01-13T09:50:08.953Z,992.53
2019-01-13T09:51:08.276Z,992.52
2019-01-13T09:52:08.238Z,992.56
2019-01-13T09:53:08.322Z,992.57
2019-01-13T09:54:08.252Z,992.50
2019-01-13T09:55:08.238Z,992.48
2019-01-13T09:56:08.222Z,992.48
2019-01-13T09:57:08.248Z,992.41
2019-01-13T09:58:08.212Z,992.35
2019-01-13T09:59:08.179Z,992.27
2019-01-13T10:00:08.216Z,992.15
2019-01-13T10:01:08.187Z,992.30
2019-01-13T10:02:08.148Z,992.34
2019-01-13T10:04:25.743Z,992.29
2019-01-13T10:05:25.964Z,992.27
2019-01-13T10:06:26.124Z,992.21
2019-01-13T10:07:25.687Z,992.18
2019-01-13T10:08:25.718Z,992.12
2019-01-13T10:09:25.653Z,992.12
2019-01-13T10:10:25.685Z,992.08
2019-01-13T10:11:25.628Z,992.05
2019-01-13T10:12:25.625Z,992.05
2019-01-13T10:13:25.605Z,992.00
2019-01-13T10:14:25.603Z,992.02
2019-01-13T10:15:25.612Z,991.97
2019-01-13T10:16:25.593Z,991.93
2019-01-13T10:17:25.555Z,991.91
2019-01-13T10:18:25.568Z,991.90
2019-01-13T10:19:25.548Z,991.82
2019-01-13T10:20:25.556Z,991.73
2019-01-13T10:21:25.549Z,991.76
2019-01-13T10:22:25.496Z,991.66
2019-01-13T10:23:25.491Z,991.73
2019-01-13T10:24:25.496Z,991.63
2019-01-13T10:25:25.494Z,991.61
2019-01-13T10:26:25.476Z,991.58
2019-01-13T10:27:25.458Z,991.56
2019-01-13T10:28:25.445Z,991.54
2019-01-13T10:29:25.449Z,991.54
2019-01-13T10:30:25.459Z,991.46
2019-01-13T10:31:25.417Z,991.44
2019-01-13T10:32:25.407Z,991.35
2019-01-13T10:33:25.390Z,991.40
2019-01-13T10:34:25.372Z,991.36
2019-01-13T10:35:25.380Z,991.31
2019-01-13T10:36:25.376Z,991.31
2019-01-13T10:37:25.372Z,991.21
2019-01-13T10:38:25.351Z,991.25
2019-01-13T10:39:25.333Z,991.11
2019-01-13T10:40:25.383Z,991.10
2019-01-13T10:41:25.335Z,991.09
2019-01-13T10:42:25.294Z,991.03
2019-01-13T10:43:25.376Z,991.06
2019-01-13T10:44:25.293Z,991.04
2019-01-13T10:45:25.267Z,991.03
2019-01-13T10:46:25.231Z,990.99
2019-01-13T10:47:25.236Z,990.93
2019-01-13T10:48:25.245Z,990.77
2019-01-13T10:49:25.301Z,990.89
2019-01-13T10:50:25.790Z,990.75
2019-01-13T10:51:25.343Z,990.78
2019-01-13T10:52:25.173Z,990.76
2019-01-13T10:53:25.188Z,990.70
2019-01-13T10:54:25.169Z,990.62
2019-01-13T10:55:32.258Z,990.53
2019-01-13T10:56:25.252Z,990.50
2019-01-13T10:58:35.788Z,990.57
2019-01-13T10:59:43.871Z,990.45
2019-01-13T11:01:46.941Z,990.45
2019-01-13T11:03:02.419Z,990.39
2019-01-13T11:03:47.291Z,990.32
2019-01-13T11:04:46.527Z,990.34
2019-01-13T11:10:32.120Z,990.13
2019-01-13T11:11:32.915Z,990.16
2019-01-13T11:12:32.795Z,990.14
2019-01-13T11:13:32.846Z,990.09
2019-01-13T11:14:31.969Z,990.02
2019-01-13T11:15:31.989Z,989.96
2019-01-13T11:16:31.969Z,989.94
2019-01-13T11:17:31.946Z,989.98
2019-01-13T11:18:31.889Z,989.88
2019-01-13T11:19:31.877Z,989.89
2019-01-13T11:20:32.841Z,989.80
2019-01-13T11:21:31.909Z,989.86
2019-01-13T11:22:31.845Z,989.77
2019-01-13T11:23:32.840Z,989.76
2019-01-13T11:24:31.819Z,989.73
2019-01-13T11:25:31.801Z,989.71
2019-01-13T11:26:31.816Z,989.63
2019-01-13T11:27:31.775Z,989.61
2019-01-13T11:28:31.774Z,989.54
2019-01-13T11:29:32.786Z,989.55
2019-01-13T11:30:31.759Z,989.55
2019-01-13T11:31:31.781Z,989.57
2019-01-13T11:32:31.752Z,989.55
2019-01-13T11:33:31.717Z,989.40
2019-01-13T11:34:31.728Z,989.42
2019-01-13T11:35:32.320Z,989.32
2019-01-13T11:36:32.318Z,989.40
2019-01-13T11:37:31.734Z,989.29
2019-01-13T11:38:31.724Z,989.34
2019-01-13T11:39:31.646Z,989.29
2019-01-13T11:40:31.664Z,989.18
2019-01-13T11:41:31.644Z,989.21
2019-01-13T11:42:31.642Z,989.22
2019-01-13T11:43:31.619Z,989.15
2019-01-13T11:44:31.634Z,989.15
2019-01-13T11:45:31.595Z,989.09
2019-01-13T11:46:31.597Z,989.02
2019-01-13T11:47:31.578Z,989.04
2019-01-13T11:48:31.582Z,988.88
2019-01-13T11:49:31.556Z,988.95
2019-01-13T11:50:31.529Z,988.95
2019-01-13T11:51:31.565Z,988.85
2019-01-13T11:52:31.532Z,988.84
2019-01-13T11:53:31.511Z,988.86
2019-01-13T11:54:31.502Z,988.85
2019-01-13T11:55:31.492Z,988.78
2019-01-13T11:56:31.491Z,988.77
2019-01-13T11:57:31.471Z,988.75
2019-01-13T11:58:31.445Z,988.70
2019-01-13T11:59:31.466Z,988.66
2019-01-13T12:00:31.466Z,988.63
2019-01-13T12:01:31.448Z,988.50
2019-01-13T12:02:32.856Z,988.53
2019-01-13T12:03:31.390Z,988.50
2019-01-13T12:04:31.374Z,988.45
2019-01-13T12:05:31.378Z,988.42
2019-01-13T12:06:31.381Z,988.37
2019-01-13T12:07:31.352Z,988.33
2019-01-13T12:08:31.326Z,988.27
2019-01-13T12:09:31.328Z,988.24
2019-01-13T12:10:31.315Z,988.13
2019-01-13T12:11:31.327Z,988.22
2019-01-13T12:12:31.307Z,988.22
2019-01-13T12:13:31.301Z,988.24
2019-01-13T12:14:31.280Z,988.19
2019-01-13T12:15:31.266Z,988.13
2019-01-13T12:16:31.268Z,988.13
2019-01-13T12:17:31.255Z,988.14
2019-01-13T12:18:31.265Z,988.09
2019-01-13T12:19:31.248Z,988.04
2019-01-13T12:20:31.311Z,987.96
2019-01-13T12:21:31.231Z,987.98
2019-01-13T12:22:31.812Z,988.02
2019-01-13T12:23:31.181Z,988.00
2019-01-13T12:24:31.172Z,988.00
2019-01-13T12:25:31.153Z,987.90
2019-01-13T12:26:31.200Z,988.04
2019-01-13T12:27:31.159Z,987.89
2019-01-13T12:28:31.143Z,987.89
2019-01-13T12:29:31.131Z,987.81
2019-01-13T12:30:31.119Z,987.74
2019-01-13T12:31:32.340Z,987.75
2019-01-13T12:32:31.095Z,987.72
2019-01-13T12:33:31.076Z,987.63
2019-01-13T12:34:31.063Z,987.63
2019-01-13T12:35:31.076Z,987.63
2019-01-13T12:36:31.070Z,987.59
2019-01-13T12:37:31.042Z,987.55
2019-01-13T12:38:31.029Z,987.51
2019-01-13T12:39:31.033Z,987.52
2019-01-13T12:40:31.002Z,987.51
2019-01-13T12:41:31.023Z,987.49
2019-01-13T12:42:31.009Z,987.45
2019-01-13T12:43:30.976Z,987.45
2019-01-13T12:44:30.982Z,987.38